マカオ の空港の天気 - METARとTAF

マカオ国際空港 ( VMMC / MFM ) - マカオ タイパ島
飛行場実況気象(Metar)
観測時間11/21 20:00 CST (11/21 12:00 UTC)
風向・風速北北西 5m/s
視程10km以上
天気現象
なし
気温21℃
湿度53%
気圧1018hPa
METARVMMC 211200Z 34009KT CAVOK 21/11 Q1018 NOSIG
過去の天気等 Google飛行場航空写真 Wunderground天気予報

過去48時間のMETAR

飛行場予報(TAF)
発表時間: 11/21 19:00 CST (11/21 11:00 UTC)
予報対象時間: 21日20時 CST ~ 23日2時 CST
風向・風速北 4m/s
視程10km以上
なし
22日14時 CST ~ 22日17時 CST に徐々に
風向・風速東南東 5m/s
TAF VMMC 211100Z 2112/2218 01008KT CAVOK
BECMG 2206/2209 12010KT